Time;durP1;ratioP1;P1;durP2;ratioP2;P2;SDS_P1;SDS_P2;PMS_P1;PMS_P2;Temp;Humidity;BMP_temperature;BMP_pressure;BME280_temperature;BME280_humidity;BME280_pressure;Samples;Min_cycle;Max_cycle;Signal;HPM_P1;HPM_P2
2021/04/21 00:02:16;;;;;;;13.28;6.92;;;;;;;9.54;62.62;99798.13;1817980;77;21105;-60
2021/04/21 00:04:47;;;;;;;12.05;6.85;;;;;;;9.48;62.75;99804.73;1778191;79;21151;-59
2021/04/21 00:07:22;;;;;;;13.15;7.05;;;;;;;9.42;62.83;99805.25;1763947;78;21219;-60
2021/04/21 00:09:51;;;;;;;10.48;6.72;;;;;;;9.44;62.89;99803.31;1785622;78;21210;-60
2021/04/21 00:12:21;;;;;;;11.05;6.75;;;;;;;9.54;62.77;99808.63;1797354;78;21540;-59
2021/04/21 00:14:50;;;;;;;9.85;6.53;;;;;;;9.63;62.57;99809.17;1796812;78;21545;-59
2021/04/21 00:17:21;;;;;;;11.80;6.80;;;;;;;9.68;62.47;99811.38;1794002;78;21175;-59
2021/04/21 00:19:51;;;;;;;10.15;6.17;;;;;;;9.68;62.45;99808.76;1769786;77;22058;-59
2021/04/21 00:22:19;;;;;;;10.93;6.87;;;;;;;9.69;62.50;99810.44;1797500;77;22197;-60
2021/04/21 00:24:48;;;;;;;10.82;6.70;;;;;;;9.70;62.39;99815.20;1796510;77;21140;-60
2021/04/21 00:27:17;;;;;;;11.63;6.92;;;;;;;9.65;62.44;99809.05;1778071;77;21159;-60
2021/04/21 00:29:49;;;;;;;10.60;6.92;;;;;;;9.61;62.60;99818.13;1800033;77;21274;-60
2021/04/21 00:32:20;;;;;;;13.62;7.72;;;;;;;9.52;62.83;99817.62;1747582;79;21147;-59
2021/04/21 00:34:49;;;;;;;12.37;6.85;;;;;;;9.47;63.11;99818.82;1772212;79;21630;-59
2021/04/21 00:37:16;;;;;;;11.68;6.95;;;;;;;9.41;63.20;99821.13;1799632;77;21153;-60
2021/04/21 00:39:44;;;;;;;11.88;6.50;;;;;;;9.38;63.38;99822.23;1765189;80;21197;-59
2021/04/21 00:42:28;;;;;;;12.37;6.33;;;;;;;9.32;63.58;99821.42;1780513;78;21175;-60
2021/04/21 00:45:06;;;;;;;8.83;6.03;;;;;;;9.32;63.63;99822.73;1778866;79;21162;-60
2021/04/21 00:47:44;;;;;;;9.18;5.90;;;;;;;9.40;63.49;99812.42;1749254;79;21190;-59
2021/04/21 00:50:16;;;;;;;10.28;6.50;;;;;;;9.48;63.33;99820.95;1746321;79;21187;-60
2021/04/21 00:52:58;;;;;;;11.03;6.50;;;;;;;9.51;63.14;99824.64;1779277;78;21135;-59
2021/04/21 00:56:05;;;;;;;10.58;6.83;;;;;;;9.48;63.23;99824.44;1774484;79;22377;-59
2021/04/21 00:58:59;;;;;;;10.30;6.67;;;;;;;9.45;63.32;99826.00;1778239;78;21380;-58
2021/04/21 01:01:29;;;;;;;9.43;5.72;;;;;;;9.44;63.35;99825.64;1779712;78;21174;-59
2021/04/21 01:03:57;;;;;;;12.28;6.75;;;;;;;9.41;63.36;99823.27;1786088;78;21154;-59
2021/04/21 01:06:35;;;;;;;12.07;7.05;;;;;;;9.42;63.36;99821.49;1778646;78;21108;-59
2021/04/21 01:09:06;;;;;;;10.53;6.47;;;;;;;9.43;63.32;99827.94;1776002;78;21131;-59
2021/04/21 01:11:58;;;;;;;13.55;6.60;;;;;;;9.45;63.23;99821.23;1762101;79;21201;-59
2021/04/21 01:14:29;;;;;;;12.28;6.80;;;;;;;9.43;63.16;99823.99;1771487;79;21183;-59
2021/04/21 01:17:01;;;;;;;12.88;6.80;;;;;;;9.40;63.16;99821.62;1773068;79;21200;-59
2021/04/21 01:19:57;;;;;;;9.03;6.03;;;;;;;9.34;63.24;99823.44;1765776;79;21107;-59
2021/04/21 01:23:08;;;;;;;10.63;6.40;;;;;;;9.28;63.42;99820.86;1773326;79;21141;-59
2021/04/21 01:26:06;;;;;;;8.35;5.22;;;;;;;9.33;63.36;99820.48;1765345;80;21277;-59
2021/04/21 01:28:33;;;;;;;8.93;6.03;;;;;;;9.45;63.23;99823.38;1758268;78;21211;-58
2021/04/21 01:31:01;;;;;;;12.30;6.67;;;;;;;9.53;63.09;99824.52;1777785;79;21168;-59
2021/04/21 01:33:28;;;;;;;12.82;6.83;;;;;;;9.57;63.06;99828.56;1741581;80;21117;-59
2021/04/21 01:36:01;;;;;;;9.68;6.00;;;;;;;9.63;62.86;99834.59;1764016;80;21150;-59
2021/04/21 01:38:29;;;;;;;10.72;6.72;;;;;;;9.70;62.62;99827.02;1753794;80;21186;-59
2021/04/21 01:41:02;;;;;;;9.93;6.62;;;;;;;9.73;62.31;99829.39;1744443;79;21199;-60
2021/04/21 01:44:01;;;;;;;10.48;6.72;;;;;;;9.74;62.09;99834.52;1748145;80;21148;-59
2021/04/21 01:46:32;;;;;;;12.93;6.92;;;;;;;9.72;62.02;99835.13;1763497;80;21633;-58
2021/04/21 01:49:25;;;;;;;9.30;6.20;;;;;;;9.65;61.99;99834.83;1765916;80;21131;-58
2021/04/21 01:52:01;;;;;;;10.05;6.58;;;;;;;9.60;62.00;99839.64;1765332;80;21323;-58
2021/04/21 01:54:29;;;;;;;9.48;5.53;;;;;;;9.51;62.03;99836.95;1748536;80;21192;-58
2021/04/21 01:57:04;;;;;;;7.87;4.78;;;;;;;9.49;62.05;99843.64;1742887;80;21108;-58
2021/04/21 01:59:43;;;;;;;11.53;5.72;;;;;;;9.54;61.95;99844.08;1739174;80;21114;-58
2021/04/21 02:02:22;;;;;;;11.45;6.20;;;;;;;9.51;62.20;99845.66;1753123;80;21194;-59
2021/04/21 02:05:23;;;;;;;8.98;6.05;;;;;;;9.44;62.63;99848.45;1755530;80;21212;-58
2021/04/21 02:08:31;;;;;;;8.53;5.37;;;;;;;9.38;62.96;99847.18;1768192;80;21131;-59
2021/04/21 02:11:18;;;;;;;10.08;6.40;;;;;;;9.30;63.08;99854.86;1771675;79;21528;-59
2021/04/21 02:14:21;;;;;;;10.10;5.85;;;;;;;9.19;63.25;99854.91;1770854;78;21135;-58
2021/04/21 02:17:03;;;;;;;8.08;5.30;;;;;;;9.10;63.52;99849.45;1770013;80;21147;-58
2021/04/21 02:20:01;;;;;;;8.95;5.15;;;;;;;9.02;63.71;99853.67;1767757;80;22306;-58
2021/04/21 02:22:36;;;;;;;9.78;6.17;;;;;;;8.91;63.91;99852.77;1754664;80;21266;-59
2021/04/21 02:25:44;;;;;;;8.60;5.30;;;;;;;8.81;64.21;99854.94;1736798;80;21526;-59
2021/04/21 02:28:35;;;;;;;11.60;5.90;;;;;;;8.78;64.33;99858.66;1787993;79;21258;-59
2021/04/21 02:31:11;;;;;;;10.32;6.62;;;;;;;8.85;64.23;99856.37;1793590;78;21175;-59
2021/04/21 02:33:49;;;;;;;9.30;5.65;;;;;;;8.84;64.34;99862.56;1739575;78;21184;-59
2021/04/21 02:36:21;;;;;;;9.85;6.25;;;;;;;8.80;64.53;99863.78;1776097;78;21119;-59
2021/04/21 02:39:16;;;;;;;8.75;6.10;;;;;;;8.76;64.65;99863.66;1745930;79;21192;-59
2021/04/21 02:42:11;;;;;;;8.63;5.45;;;;;;;8.71;64.70;99866.19;1701902;78;21166;-58
2021/04/21 02:45:14;;;;;;;8.47;5.70;;;;;;;8.67;64.75;99864.75;1786066;78;21197;-58
2021/04/21 02:47:49;;;;;;;10.82;5.45;;;;;;;8.64;64.97;99867.64;1783889;78;21457;-58
2021/04/21 02:50:22;;;;;;;9.60;5.67;;;;;;;8.58;65.03;99862.05;1772139;77;22276;-58
2021/04/21 02:53:14;;;;;;;9.05;5.10;;;;;;;8.53;65.16;99868.97;1780893;78;21142;-58
2021/04/21 02:56:07;;;;;;;7.72;4.78;;;;;;;8.45;65.27;99864.32;1778154;78;21223;-59
2021/04/21 02:59:15;;;;;;;11.08;6.37;;;;;;;8.46;65.46;99878.28;1783484;78;21117;-58
2021/04/21 03:01:55;;;;;;;8.93;5.53;;;;;;;8.52;65.38;99871.22;1783213;78;22204;-58
2021/04/21 03:04:36;;;;;;;9.73;5.45;;;;;;;8.55;65.40;99870.98;1781945;78;21164;-58
2021/04/21 03:07:07;;;;;;;9.30;5.25;;;;;;;8.54;65.37;99880.66;1773347;78;21167;-58
2021/04/21 03:09:58;;;;;;;10.48;5.90;;;;;;;8.52;65.28;99879.95;1756416;79;21473;-58
2021/04/21 03:12:27;;;;;;;8.90;5.53;;;;;;;8.47;65.37;99883.88;1770256;79;21226;-58
2021/04/21 03:15:05;;;;;;;8.93;5.90;;;;;;;8.41;65.53;99883.86;1796075;79;21190;-58
2021/04/21 03:17:35;;;;;;;8.53;5.30;;;;;;;8.37;65.62;99887.20;1793780;77;21108;-58
2021/04/21 03:20:18;;;;;;;12.58;6.33;;;;;;;8.32;65.79;99889.35;1799604;77;21264;-58
2021/04/21 03:22:51;;;;;;;8.70;4.80;;;;;;;8.27;65.82;99894.13;1777735;78;21187;-58
2021/04/21 03:25:35;;;;;;;9.33;5.12;;;;;;;8.32;65.81;99895.05;1780205;78;21144;-58
2021/04/21 03:28:06;;;;;;;11.38;5.20;;;;;;;8.43;65.61;99900.81;1796450;77;21202;-58
2021/04/21 03:30:34;;;;;;;9.33;5.28;;;;;;;8.45;65.52;99897.59;1772763;77;21236;-59
2021/04/21 03:33:16;;;;;;;9.90;5.30;;;;;;;8.44;65.56;99905.08;1804839;78;21183;-59
2021/04/21 03:35:50;;;;;;;8.83;5.80;;;;;;;8.41;65.64;99900.90;1811762;77;21200;-58
2021/04/21 03:38:20;;;;;;;7.60;4.65;;;;;;;8.39;65.71;99902.81;1813199;77;21182;-59
2021/04/21 03:40:47;;;;;;;9.60;5.47;;;;;;;8.37;65.76;99904.24;1789522;78;21207;-59
2021/04/21 03:43:15;;;;;;;9.18;4.92;;;;;;;8.39;65.75;99909.37;1815609;77;22319;-59
2021/04/21 03:45:49;;;;;;;8.70;5.22;;;;;;;8.41;65.80;99913.19;1785450;78;21186;-59
2021/04/21 03:48:17;;;;;;;9.90;4.97;;;;;;;8.40;65.81;99915.44;1749415;79;21236;-59
2021/04/21 03:50:49;;;;;;;7.72;4.40;;;;;;;8.42;65.77;99917.45;1793052;77;21630;-58
2021/04/21 03:53:18;;;;;;;10.30;6.92;;;;;;;8.53;65.52;99917.48;1805910;77;21191;-59
2021/04/21 03:55:46;;;;;;;9.63;7.08;;;;;;;8.57;65.44;99917.58;1783610;77;21549;-59
2021/04/21 03:58:18;;;;;;;13.58;8.75;;;;;;;8.56;65.33;99925.11;1806149;77;21915;-59
2021/04/21 04:00:50;;;;;;;15.95;11.55;;;;;;;8.54;65.46;99921.30;1803733;77;21167;-59
2021/04/21 04:03:21;;;;;;;13.30;8.35;;;;;;;8.52;65.68;99928.91;1811712;77;21177;-59
2021/04/21 04:06:08;;;;;;;20.35;12.33;;;;;;;8.52;65.89;99924.52;1766057;78;21368;-59
2021/04/21 04:08:48;;;;;;;16.57;11.18;;;;;;;8.56;65.95;99932.98;1804970;77;21209;-58
2021/04/21 04:11:19;;;;;;;12.88;8.70;;;;;;;8.55;65.92;99940.48;1808034;77;21187;-58
2021/04/21 04:13:48;;;;;;;12.98;7.72;;;;;;;8.50;65.84;99938.70;1786854;78;21221;-58
2021/04/21 04:16:15;;;;;;;9.58;6.05;;;;;;;8.53;65.84;99937.15;1796031;78;21592;-59
2021/04/21 04:18:43;;;;;;;15.53;5.78;;;;;;;8.66;65.72;99940.96;1790172;77;21207;-59
2021/04/21 04:21:12;;;;;;;7.87;4.80;;;;;;;8.70;65.30;99949.75;1814074;77;21111;-59
2021/04/21 04:23:41;;;;;;;10.25;5.40;;;;;;;8.69;65.26;99952.04;1817105;77;21611;-59
2021/04/21 04:26:09;;;;;;;13.62;5.17;;;;;;;8.67;65.25;99951.30;1790767;78;21652;-59
2021/04/21 04:28:38;;;;;;;7.47;4.87;;;;;;;8.67;65.36;99957.86;1791182;78;21207;-59
2021/04/21 04:31:07;;;;;;;8.38;5.25;;;;;;;8.67;65.28;99960.97;1761058;79;21207;-60
2021/04/21 04:33:35;;;;;;;7.95;4.60;;;;;;;8.68;65.28;99962.16;1790795;79;21799;-59
2021/04/21 04:36:05;;;;;;;11.20;5.50;;;;;;;8.72;65.23;99961.44;1748541;79;22720;-59
2021/04/21 04:38:33;;;;;;;8.80;5.30;;;;;;;8.74;65.15;99963.45;1790809;79;21191;-58
2021/04/21 04:41:00;;;;;;;9.68;4.58;;;;;;;8.79;65.22;99966.55;1792795;79;21152;-59
2021/04/21 04:43:28;;;;;;;9.35;5.03;;;;;;;8.92;64.98;99969.87;1764472;79;21187;-60
2021/04/21 04:46:01;;;;;;;8.83;4.58;;;;;;;9.11;64.64;99971.88;1795267;79;21125;-60
2021/04/21 04:48:34;;;;;;;9.30;4.72;;;;;;;9.25;64.26;99972.06;1765285;79;21226;-60
2021/04/21 04:51:01;;;;;;;10.35;5.58;;;;;;;9.32;64.00;99971.09;1788931;79;21223;-59
2021/04/21 04:53:30;;;;;;;9.98;5.75;;;;;;;9.34;63.76;99978.35;1786915;77;21188;-59
2021/04/21 04:55:58;;;;;;;8.48;5.10;;;;;;;9.31;63.65;99981.22;1791335;79;21214;-58
2021/04/21 04:58:26;;;;;;;8.90;5.30;;;;;;;9.30;63.84;99983.02;1791010;77;21179;-58
2021/04/21 05:00:58;;;;;;;8.80;5.78;;;;;;;9.33;63.68;99979.78;1790484;79;21148;-58
2021/04/21 05:03:28;;;;;;;8.25;5.00;;;;;;;9.35;63.73;99980.03;1776521;79;21180;-60
2021/04/21 05:05:55;;;;;;;10.15;4.90;;;;;;;9.44;63.65;99983.20;1792622;79;21179;-56
2021/04/21 05:08:30;;;;;;;8.73;5.15;;;;;;;9.52;63.42;99987.02;1796003;77;21259;-59
2021/04/21 05:11:06;;;;;;;9.30;4.87;;;;;;;9.52;63.15;99984.39;1792895;79;21626;-59
2021/04/21 05:13:50;;;;;;;8.48;4.45;;;;;;;9.49;63.25;99982.84;1773768;78;21580;-59
2021/04/21 05:16:47;;;;;;;9.70;5.67;;;;;;;9.52;63.24;99986.53;1793619;79;21199;-59
2021/04/21 05:19:41;;;;;;;10.20;4.92;;;;;;;9.60;63.03;99985.87;1784304;79;21414;-60
2021/04/21 05:22:41;;;;;;;7.80;4.03;;;;;;;9.72;62.72;99979.64;1791618;79;21466;-61
2021/04/21 05:25:49;;;;;;;7.55;4.47;;;;;;;9.88;62.55;99980.49;1786641;79;21219;-61
2021/04/21 05:28:35;;;;;;;8.35;4.70;;;;;;;10.09;61.95;99983.61;1792851;77;21112;-61
2021/04/21 05:31:17;;;;;;;8.85;4.47;;;;;;;10.21;61.80;99978.13;1794384;78;21132;-65
2021/04/21 05:34:15;;;;;;;7.33;5.22;;;;;;;10.31;61.74;99974.73;1790574;77;21103;-63
2021/04/21 05:37:21;;;;;;;8.78;5.03;;;;;;;10.41;61.46;99984.84;1747734;81;21348;-60
2021/04/21 05:40:25;;;;;;;9.05;4.95;;;;;;;10.55;61.08;99998.12;1717669;81;21246;-63
2021/04/21 05:43:36;;;;;;;8.40;4.85;;;;;;;10.63;60.45;100008.82;1712274;81;21226;-66
2021/04/21 05:46:37;;;;;;;8.63;4.70;;;;;;;10.69;60.27;100014.02;1740649;81;21251;-59
2021/04/21 05:49:44;;;;;;;8.50;5.35;;;;;;;10.71;60.13;100027.41;1716758;79;21270;-64
2021/04/21 05:53:03;;;;;;;8.40;5.12;;;;;;;10.68;60.17;100023.73;1799984;78;22596;-59
2021/04/21 05:56:09;;;;;;;10.03;5.58;;;;;;;10.60;59.46;100024.38;1797452;77;21214;-58
2021/04/21 05:59:16;;;;;;;9.73;5.80;;;;;;;10.51;59.99;100033.56;1712145;81;21331;-72
2021/04/21 06:01:45;;;;;;;8.50;5.03;;;;;;;10.40;59.95;100026.08;1711244;81;26634;-68
2021/04/21 06:04:15;;;;;;;9.05;5.62;;;;;;;10.39;60.33;100030.18;1753015;79;21258;-60
2021/04/21 06:06:42;;;;;;;9.00;5.60;;;;;;;10.47;60.23;100032.14;1727492;81;21230;-63
2021/04/21 06:09:11;;;;;;;8.43;5.42;;;;;;;10.59;59.19;100030.62;1751046;79;21242;-59
2021/04/21 06:11:38;;;;;;;11.15;6.08;;;;;;;10.64;59.21;100032.01;1756312;79;21187;-64
2021/04/21 06:14:07;;;;;;;9.28;5.10;;;;;;;10.64;58.85;100034.64;1755210;79;21206;-62
2021/04/21 06:16:36;;;;;;;7.85;5.28;;;;;;;10.62;58.40;100034.77;1747398;79;21186;-68
2021/04/21 06:19:09;;;;;;;9.95;5.28;;;;;;;10.56;58.42;100038.77;1749138;81;21249;-64
2021/04/21 06:21:39;;;;;;;8.55;5.30;;;;;;;10.50;58.66;100037.97;1749378;81;21202;-61
2021/04/21 06:24:29;;;;;;;11.73;5.47;;;;;;;10.49;58.46;100042.04;1749177;81;21179;-60
2021/04/21 06:27:11;;;;;;;10.40;5.53;;;;;;;10.47;58.65;100040.85;1717923;81;21587;-59
2021/04/21 06:29:40;;;;;;;7.67;4.58;;;;;;;10.46;58.74;100042.33;1749045;81;21143;-57
2021/04/21 06:32:13;;;;;;;10.70;5.50;;;;;;;10.45;58.90;100046.73;1749612;79;22115;-57
2021/04/21 06:34:42;;;;;;;8.25;5.33;;;;;;;10.43;58.93;100039.46;1756273;80;21192;-59
2021/04/21 06:37:09;;;;;;;8.33;5.50;;;;;;;10.47;58.86;100040.85;1741088;80;21145;-59
2021/04/21 06:39:37;;;;;;;8.98;6.00;;;;;;;10.55;58.73;100049.42;1738069;78;21192;-57
2021/04/21 06:42:06;;;;;;;9.48;5.80;;;;;;;10.60;58.41;100048.05;1739480;79;21140;-59
2021/04/21 06:44:47;;;;;;;9.00;5.22;;;;;;;10.67;58.22;100046.22;1716500;81;21247;-60
2021/04/21 06:47:23;;;;;;;8.60;5.05;;;;;;;10.72;57.74;100047.97;1775285;78;21142;-59
2021/04/21 06:50:04;;;;;;;8.35;4.95;;;;;;;10.72;57.53;100051.43;1743504;80;21165;-60
2021/04/21 06:52:42;;;;;;;11.40;5.50;;;;;;;10.73;57.67;100060.18;1750589;80;21368;-58
2021/04/21 06:55:16;;;;;;;8.85;5.53;;;;;;;10.72;57.55;100066.39;1725966;81;21625;-60
2021/04/21 06:57:43;;;;;;;7.78;4.97;;;;;;;10.67;58.01;100065.95;1743435;80;21441;-59
2021/04/21 07:00:19;;;;;;;9.08;6.40;;;;;;;10.71;58.45;100066.06;1743874;80;21231;-59
2021/04/21 07:02:48;;;;;;;;;;;;;;;10.77;58.01;100065.02;1768292;80;21129;-59
2021/04/21 07:05:35;;;;;;;8.45;5.75;;;;;;;10.85;58.13;100071.45;1766539;79;20283;-58
2021/04/21 07:08:14;;;;;;;9.35;5.75;;;;;;;10.86;58.07;100069.15;1752693;79;21150;-58
2021/04/21 07:10:50;;;;;;;11.00;5.97;;;;;;;10.93;58.02;100062.41;1756130;79;21709;-60
2021/04/21 07:13:23;;;;;;;6.92;4.40;;;;;;;10.98;57.96;100066.79;1746703;80;21680;-60
2021/04/21 07:15:56;;;;;;;9.88;5.40;;;;;;;11.06;56.84;100070.91;1749587;79;21247;-60
2021/04/21 07:18:29;;;;;;;7.78;4.60;;;;;;;11.06;56.61;100068.28;1741309;81;21687;-60
2021/04/21 07:21:00;;;;;;;8.23;5.45;;;;;;;11.05;56.47;100062.65;1752079;80;21105;-60
2021/04/21 07:23:28;;;;;;;7.85;4.55;;;;;;;11.07;56.50;100063.34;1760374;79;21416;-60
2021/04/21 07:25:55;;;;;;;8.05;5.00;;;;;;;11.12;56.28;100066.89;1762583;79;21267;-58
2021/04/21 07:28:23;;;;;;;7.80;4.95;;;;;;;11.15;56.56;100078.48;1766008;79;21219;-59
2021/04/21 07:30:52;;;;;;;8.23;4.58;;;;;;;11.20;56.32;100078.91;1728272;79;21211;-60
2021/04/21 07:33:38;;;;;;;8.65;4.53;;;;;;;11.28;56.22;100082.17;1739841;79;21267;-61
2021/04/21 07:36:23;;;;;;;9.93;4.78;;;;;;;11.36;56.01;100081.52;1800672;78;21359;-58
2021/04/21 07:38:56;;;;;;;6.65;4.00;;;;;;;11.38;55.34;100087.01;1804574;77;21223;-60
2021/04/21 07:41:44;;;;;;;8.00;4.65;;;;;;;11.42;55.17;100092.34;1774346;79;21216;-59
2021/04/21 07:44:36;;;;;;;7.85;4.40;;;;;;;11.49;54.81;100090.00;1744200;80;21207;-59
2021/04/21 07:47:09;;;;;;;7.53;4.10;;;;;;;11.52;54.65;100089.23;1766679;79;21152;-58
2021/04/21 07:49:44;;;;;;;8.00;4.20;;;;;;;11.59;54.57;100095.29;1798447;78;21635;-58
2021/04/21 07:52:26;;;;;;;7.87;3.55;;;;;;;11.62;53.76;100094.53;1782084;78;21993;-70
2021/04/21 07:55:22;;;;;;;5.45;3.00;;;;;;;11.66;54.23;100089.31;1772846;78;21950;-63
2021/04/21 07:58:00;;;;;;;7.00;3.70;;;;;;;11.82;52.95;100099.83;1807290;78;21582;-60
2021/04/21 08:00:29;;;;;;;6.78;3.10;;;;;;;11.94;51.87;100096.11;1778249;79;21513;-67
2021/04/21 08:03:00;;;;;;;6.97;3.85;;;;;;;11.98;52.19;100100.12;1802265;78;21222;-59
2021/04/21 08:05:28;;;;;;;6.50;3.87;;;;;;;12.02;52.10;100104.16;1750775;78;21223;-60
2021/04/21 08:08:01;;;;;;;6.70;3.33;;;;;;;12.08;52.15;100106.22;1799867;77;21147;-61
2021/04/21 08:10:39;;;;;;;5.15;2.83;;;;;;;12.19;51.21;100115.81;1753575;80;21167;-63
2021/04/21 08:13:04;;;;;;;6.55;3.20;;;;;;;12.22;49.86;100105.45;1772211;79;21144;-67
2021/04/21 08:15:39;;;;;;;6.35;3.15;;;;;;;12.23;49.82;100104.49;1782502;78;21191;-61
2021/04/21 08:18:12;;;;;;;6.33;3.15;;;;;;;12.19;49.48;100104.44;1806598;77;21624;-63
2021/04/21 08:20:50;;;;;;;7.40;3.25;;;;;;;12.23;50.08;100101.86;1758017;77;21198;-59
2021/04/21 08:23:18;;;;;;;6.12;3.58;;;;;;;12.32;49.47;100096.22;1764823;77;21171;-56
2021/04/21 08:25:47;;;;;;;6.28;3.62;;;;;;;12.35;48.53;100103.36;1782164;78;21167;-59
2021/04/21 08:28:15;;;;;;;5.55;2.65;;;;;;;12.38;47.50;100105.72;1813464;77;21407;-60
2021/04/21 08:31:00;;;;;;;6.78;3.65;;;;;;;12.41;47.90;100108.08;1776142;80;21219;-58
2021/04/21 08:33:29;;;;;;;6.60;3.50;;;;;;;12.42;47.69;100104.48;1749468;80;21615;-60
2021/04/21 08:35:58;;;;;;;6.72;3.27;;;;;;;12.40;48.38;100107.72;1757609;80;21216;-58
2021/04/21 08:38:25;;;;;;;6.90;3.62;;;;;;;12.34;48.81;100105.67;1810386;77;21184;-57
2021/04/21 08:40:53;;;;;;;7.40;3.83;;;;;;;12.31;49.20;100107.77;1795779;78;21505;-58
2021/04/21 08:43:21;;;;;;;5.50;3.50;;;;;;;12.29;49.33;100110.53;1787873;77;21516;-59
2021/04/21 08:45:51;;;;;;;6.30;3.47;;;;;;;12.21;49.23;100112.55;1802719;77;21109;-59
2021/04/21 08:48:19;;;;;;;6.55;3.60;;;;;;;12.10;50.44;100127.69;1781626;79;21120;-66
2021/04/21 08:50:47;;;;;;;6.50;3.65;;;;;;;11.95;51.87;100132.53;1785628;78;21096;-61
2021/04/21 08:53:14;;;;;;;9.23;3.98;;;;;;;11.80;53.65;100130.75;1797050;78;21231;-59
2021/04/21 08:55:42;;;;;;;6.17;3.25;;;;;;;11.65;54.30;100132.94;1791529;78;21208;-62
2021/04/21 08:58:10;;;;;;;7.67;4.37;;;;;;;11.55;54.63;100120.23;1820858;77;21207;-61
2021/04/21 09:00:39;;;;;;;5.72;3.70;;;;;;;11.51;55.69;100120.98;1751319;79;21218;-59
2021/04/21 09:03:08;;;;;;;7.62;3.87;;;;;;;11.53;55.45;100126.48;1803106;78;21705;-61
2021/04/21 09:05:35;;;;;;;5.78;3.05;;;;;;;11.56;55.38;100116.64;1776692;78;21573;-60
2021/04/21 09:08:03;;;;;;;9.55;3.42;;;;;;;11.64;55.85;100118.11;1781764;78;21247;-60
2021/04/21 09:10:30;;;;;;;5.78;3.10;;;;;;;11.73;55.37;100119.91;1815604;78;21126;-61
2021/04/21 09:12:58;;;;;;;6.25;3.27;;;;;;;11.85;55.14;100123.25;1812403;77;21193;-62
2021/04/21 09:15:27;;;;;;;6.15;3.22;;;;;;;11.96;54.48;100123.66;1781506;78;21482;-61
2021/04/21 09:17:57;;;;;;;6.17;3.55;;;;;;;12.02;55.04;100119.98;1776332;78;21271;-62
2021/04/21 09:20:26;;;;;;;5.30;3.10;;;;;;;12.15;54.95;100121.50;1750961;79;21106;-61
2021/04/21 09:23:11;;;;;;;6.72;3.60;;;;;;;12.30;54.57;100122.73;1784924;78;21186;-61
2021/04/21 09:25:40;;;;;;;7.47;3.42;;;;;;;12.39;54.05;100119.73;1812706;78;21687;-61
2021/04/21 09:28:09;;;;;;;8.00;4.05;;;;;;;12.49;53.28;100117.09;1809679;78;21150;-61
2021/04/21 09:30:40;;;;;;;8.03;4.53;;;;;;;12.53;53.02;100114.03;1750010;79;21198;-61
2021/04/21 09:33:11;;;;;;;6.95;4.30;;;;;;;12.58;52.22;100116.25;1787684;78;21217;-60
2021/04/21 09:35:43;;;;;;;13.83;4.10;;;;;;;12.59;52.48;100107.34;1795597;78;21620;-61
2021/04/21 09:38:21;;;;;;;7.87;4.28;;;;;;;12.60;52.43;100107.70;1808785;77;21761;-62
2021/04/21 09:40:56;;;;;;;7.55;4.22;;;;;;;12.59;52.76;100116.58;1763448;78;21248;-64
2021/04/21 09:43:33;;;;;;;8.17;4.60;;;;;;;12.53;52.77;100123.77;1813905;77;21200;-63
2021/04/21 09:46:07;;;;;;;9.00;5.65;;;;;;;12.53;52.77;100123.77;1782567;78;21479;-61
2021/04/21 09:48:35;;;;;;;32.98;11.45;;;;;;;12.55;53.50;100121.81;1813553;77;21218;-60
2021/04/21 09:51:06;;;;;;;9.50;4.75;;;;;;;12.62;54.01;100120.26;1812163;77;21212;-60
2021/04/21 09:53:48;;;;;;;12.43;5.30;;;;;;;12.73;53.67;100119.27;1789188;78;21222;-61
2021/04/21 09:56:21;;;;;;;21.95;9.38;;;;;;;12.86;53.30;100117.62;1812225;77;21678;-60
2021/04/21 09:58:53;;;;;;;8.53;4.40;;;;;;;12.99;52.82;100115.48;1788053;78;21213;-59
2021/04/21 10:01:31;;;;;;;7.97;4.55;;;;;;;13.08;52.40;100119.06;1787776;78;21268;-60
2021/04/21 10:04:27;;;;;;;9.00;4.65;;;;;;;13.07;52.46;100124.84;1790518;78;21121;-61
2021/04/21 10:07:01;;;;;;;8.00;4.37;;;;;;;13.01;52.38;100118.34;1813024;77;21198;-58
2021/04/21 10:09:37;;;;;;;6.95;4.15;;;;;;;12.90;51.80;100116.38;1795572;78;21769;-63
2021/04/21 10:12:19;;;;;;;7.53;3.90;;;;;;;12.89;52.01;100126.58;1810631;77;26895;-64
2021/04/21 10:15:11;;;;;;;7.67;3.87;;;;;;;12.96;52.18;100123.70;1815914;78;21188;-60
2021/04/21 10:17:41;;;;;;;7.25;3.95;;;;;;;13.02;51.35;100119.16;1808053;77;21209;-59
2021/04/21 10:20:14;;;;;;;7.55;4.30;;;;;;;13.12;52.07;100119.95;1814254;78;21931;-59
2021/04/21 10:22:43;;;;;;;7.85;4.60;;;;;;;13.29;51.69;100110.41;1817876;78;21498;-60
2021/04/21 10:25:15;;;;;;;6.40;4.03;;;;;;;13.40;51.20;100109.43;1809957;77;21228;-61
2021/04/21 10:27:42;;;;;;;9.28;4.20;;;;;;;13.49;50.15;100114.31;1782642;78;21122;-63
2021/04/21 10:30:13;;;;;;;8.03;4.20;;;;;;;13.50;49.96;100117.28;1829456;77;21168;-58
2021/04/21 10:32:41;;;;;;;6.85;3.47;;;;;;;13.53;49.25;100117.84;1800794;78;21531;-59
2021/04/21 10:35:10;;;;;;;6.17;3.33;;;;;;;13.52;49.41;100106.09;1765865;78;21147;-62
2021/04/21 10:37:39;;;;;;;6.70;3.35;;;;;;;13.53;49.34;100109.91;1783878;79;21167;-59
2021/04/21 10:40:11;;;;;;;7.08;4.00;;;;;;;13.54;49.87;100115.52;1810029;77;21544;-59
2021/04/21 10:42:49;;;;;;;8.10;3.92;;;;;;;13.64;50.50;100115.96;1767566;78;21157;-61
2021/04/21 10:45:19;;;;;;;7.30;3.75;;;;;;;13.73;49.20;100129.13;1768347;80;21203;-60
2021/04/21 10:48:50;;;;;;;5.10;2.15;;;;;;;13.74;48.48;100128.13;1860162;75;22489;-61
2021/04/21 10:51:34;;;;;;;6.47;2.17;;;;;;;13.69;47.68;100140.14;1848539;76;21140;-61
2021/04/21 10:54:08;;;;;;;4.55;1.98;;;;;;;13.56;46.05;100143.13;1854708;77;21139;-58
2021/04/21 10:56:37;;;;;;;4.40;1.90;;;;;;;13.30;46.94;100140.33;1851152;75;21195;-60
2021/04/21 10:59:04;;;;;;;5.65;2.30;;;;;;;13.16;47.44;100146.44;1791030;78;21096;-61
2021/04/21 11:01:39;;;;;;;5.37;1.70;;;;;;;13.10;47.48;100156.25;1795330;78;21219;-61
2021/04/21 11:04:11;;;;;;;4.60;2.00;;;;;;;13.10;47.27;100137.77;1789584;78;21203;-61
2021/04/21 11:09:21;;;;;;;5.72;2.58;;;;;;;13.25;47.40;100133.34;1881530;74;22493;-59
2021/04/21 11:11:49;;;;;;;4.58;1.82;;;;;;;13.30;47.93;100132.41;1775760;79;21173;-61
2021/04/21 11:14:38;;;;;;;5.75;2.52;;;;;;;13.45;47.17;100121.71;1797079;78;21185;-61
2021/04/21 11:17:07;;;;;;;5.00;2.27;;;;;;;13.60;46.79;100129.13;1798043;78;21182;-61
2021/04/21 11:19:42;;;;;;;4.37;2.27;;;;;;;13.75;46.40;100124.98;1798603;78;21196;-58
2021/04/21 11:22:28;;;;;;;4.85;2.25;;;;;;;13.88;46.33;100129.41;1793330;78;21136;-60
2021/04/21 11:25:23;;;;;;;5.05;2.08;;;;;;;13.99;46.07;100127.05;1771999;80;21059;-61
2021/04/21 11:27:51;;;;;;;6.12;1.77;;;;;;;14.10;45.98;100133.91;1770569;79;21311;-61
2021/04/21 11:30:41;;;;;;;6.42;2.70;;;;;;;14.17;44.97;100140.28;1781689;79;21048;-61
2021/04/21 11:33:09;;;;;;;7.40;2.30;;;;;;;14.16;45.38;100129.85;1779769;79;21120;-60
2021/04/21 11:35:37;;;;;;;5.00;2.20;;;;;;;14.06;45.27;100139.19;1754050;80;21233;-62
2021/04/21 11:38:04;;;;;;;4.00;1.72;;;;;;;13.97;46.17;100134.78;1783715;79;21160;-63
2021/04/21 11:40:34;;;;;;;4.67;2.50;;;;;;;13.87;45.37;100140.14;1782623;78;23644;-59
2021/04/21 11:43:17;;;;;;;5.67;2.42;;;;;;;13.81;45.43;100134.97;1769637;79;21200;-61
2021/04/21 11:45:46;;;;;;;4.20;2.00;;;;;;;13.82;44.99;100140.61;1762310;80;21593;-62
2021/04/21 11:48:17;;;;;;;6.37;1.82;;;;;;;13.85;44.24;100145.61;1802864;77;21175;-65
2021/04/21 11:50:49;;;;;;;4.67;2.02;;;;;;;13.87;44.50;100133.05;1782558;80;21589;-65
2021/04/21 11:53:20;;;;;;;4.28;1.98;;;;;;;13.98;45.46;100124.55;1771122;80;21192;-64
2021/04/21 11:55:57;;;;;;;5.22;2.30;;;;;;;14.17;44.79;100128.37;1799363;78;21136;-66
2021/04/21 11:58:37;;;;;;;5.17;2.40;;;;;;;14.33;45.02;100116.26;1782704;78;21181;-64
2021/04/21 12:01:10;;;;;;;5.97;3.30;;;;;;;14.54;46.44;100125.16;1769681;77;21139;-62
2021/04/21 12:03:45;;;;;;;8.25;4.15;;;;;;;14.68;46.52;100121.48;1802162;78;21728;-61
2021/04/21 12:06:16;;;;;;;6.33;2.62;;;;;;;14.78;46.98;100121.89;1806577;78;21606;-60
2021/04/21 12:08:50;;;;;;;7.30;2.58;;;;;;;14.82;46.77;100120.08;1799138;77;21194;-59
2021/04/21 12:11:27;;;;;;;5.25;2.85;;;;;;;14.91;46.53;100118.33;1771988;80;21162;-59
2021/04/21 12:13:54;;;;;;;5.17;2.83;;;;;;;14.97;46.37;100118.18;1801372;77;21155;-59
2021/04/21 12:16:23;;;;;;;8.10;2.77;;;;;;;14.98;45.75;100124.65;1811294;77;21121;-63
2021/04/21 12:18:55;;;;;;;5.87;2.75;;;;;;;14.97;45.80;100120.33;1804346;78;21255;-60